createdAt,value
2019-01-15T00:00:39.427Z,84
2019-01-15T00:01:41.848Z,84
2019-01-15T00:02:43.881Z,84
2019-01-15T00:03:45.927Z,84
2019-01-15T00:04:47.993Z,84
2019-01-15T00:05:50.019Z,84
2019-01-15T00:06:52.119Z,84
2019-01-15T00:07:54.454Z,84
2019-01-15T00:08:56.489Z,85
2019-01-15T00:09:58.800Z,84
2019-01-15T00:11:01.119Z,85
2019-01-15T00:12:09.078Z,85
2019-01-15T00:13:11.113Z,85
2019-01-15T00:14:13.144Z,85
2019-01-15T00:15:15.182Z,85
2019-01-15T00:16:17.221Z,86
2019-01-15T00:17:19.253Z,86
2019-01-15T00:18:21.297Z,86
2019-01-15T00:19:23.339Z,86
2019-01-15T00:20:25.686Z,86
2019-01-15T00:21:27.718Z,86
2019-01-15T00:22:29.770Z,86
2019-01-15T00:23:31.798Z,86
2019-01-15T00:24:33.827Z,86
2019-01-15T00:25:35.863Z,86
2019-01-15T00:26:38.478Z,86
2019-01-15T00:27:40.530Z,86
2019-01-15T00:28:42.559Z,87
2019-01-15T00:29:44.609Z,87
2019-01-15T00:30:46.650Z,87
2019-01-15T00:31:48.685Z,87
2019-01-15T00:32:51.004Z,87
2019-01-15T00:33:53.036Z,87
2019-01-15T00:34:55.073Z,87
2019-01-15T00:35:57.121Z,87
2019-01-15T00:36:59.161Z,87
2019-01-15T00:38:01.214Z,87
2019-01-15T00:39:03.251Z,87
2019-01-15T00:40:05.303Z,87
2019-01-15T00:41:07.337Z,87
2019-01-15T00:42:16.335Z,87
2019-01-15T00:43:18.371Z,87
2019-01-15T00:44:20.387Z,87
2019-01-15T00:45:22.420Z,87
2019-01-15T00:46:24.440Z,87
2019-01-15T00:47:26.463Z,87
2019-01-15T00:48:28.510Z,87
2019-01-15T00:49:30.845Z,87
2019-01-15T00:50:32.878Z,87
2019-01-15T00:51:35.208Z,87
2019-01-15T00:52:37.247Z,87
2019-01-15T00:53:39.286Z,87
2019-01-15T00:54:41.594Z,87
2019-01-15T00:55:43.690Z,87
2019-01-15T00:56:46.007Z,87
2019-01-15T00:57:48.047Z,87
2019-01-15T00:58:50.063Z,87
2019-01-15T00:59:52.105Z,86
2019-01-15T01:00:54.187Z,86
2019-01-15T01:01:56.231Z,87
2019-01-15T01:02:58.272Z,87
2019-01-15T01:04:00.312Z,87
2019-01-15T01:05:02.757Z,87
2019-01-15T01:06:04.858Z,86
2019-01-15T01:07:06.888Z,86
2019-01-15T01:08:08.979Z,87
2019-01-15T01:09:11.006Z,87
2019-01-15T01:10:13.072Z,86
2019-01-15T01:11:15.108Z,86
2019-01-15T01:12:23.106Z,86
2019-01-15T01:13:25.143Z,86
2019-01-15T01:14:27.172Z,86
2019-01-15T01:15:29.483Z,86
2019-01-15T01:16:31.520Z,86
2019-01-15T01:17:33.570Z,86
2019-01-15T01:18:35.610Z,86
2019-01-15T01:19:37.648Z,86
2019-01-15T01:20:39.692Z,86
2019-01-15T01:21:41.728Z,86
2019-01-15T01:22:44.166Z,86
2019-01-15T01:23:46.263Z,86
2019-01-15T01:24:48.312Z,86
2019-01-15T01:25:50.344Z,86
2019-01-15T01:26:52.775Z,86
2019-01-15T01:27:54.806Z,86
2019-01-15T01:28:56.833Z,85
2019-01-15T01:29:58.859Z,86
2019-01-15T01:31:01.581Z,86
2019-01-15T01:32:03.974Z,86
2019-01-15T01:33:06.289Z,86
2019-01-15T01:34:08.330Z,86
2019-01-15T01:35:10.423Z,86
2019-01-15T01:36:12.464Z,86
2019-01-15T01:37:14.845Z,86
2019-01-15T01:38:16.875Z,86
2019-01-15T01:39:18.914Z,86
2019-01-15T01:40:21.269Z,86
2019-01-15T01:41:23.290Z,86
2019-01-15T01:42:30.444Z,86
2019-01-15T01:43:32.489Z,85
2019-01-15T01:44:34.525Z,85
2019-01-15T01:45:36.837Z,85
2019-01-15T01:46:38.877Z,85
2019-01-15T01:47:40.902Z,85
2019-01-15T01:48:42.935Z,86
2019-01-15T01:49:44.964Z,86
2019-01-15T01:50:47.014Z,86
2019-01-15T01:51:49.613Z,85
2019-01-15T01:52:51.662Z,85
2019-01-15T01:53:53.755Z,86
2019-01-15T01:54:55.798Z,86
2019-01-15T01:55:57.828Z,86
2019-01-15T01:56:59.869Z,85
2019-01-15T01:58:01.901Z,85
2019-01-15T01:59:03.938Z,86
2019-01-15T02:00:05.978Z,86
2019-01-15T02:01:08.023Z,86
2019-01-15T02:02:10.075Z,86
2019-01-15T02:03:12.124Z,86
2019-01-15T02:04:14.156Z,86
2019-01-15T02:05:16.189Z,86
2019-01-15T02:06:18.230Z,86
2019-01-15T02:07:20.661Z,86
2019-01-15T02:08:22.758Z,86
2019-01-15T02:09:24.799Z,86
2019-01-15T02:10:26.834Z,86
2019-01-15T02:11:28.873Z,86
2019-01-15T02:12:37.900Z,86
2019-01-15T02:13:39.939Z,87
2019-01-15T02:14:42.679Z,87
2019-01-15T02:15:45.000Z,87
2019-01-15T02:16:47.043Z,87
2019-01-15T02:17:49.080Z,87
2019-01-15T02:18:51.506Z,87
2019-01-15T02:19:53.599Z,87
2019-01-15T02:20:55.652Z,87
2019-01-15T02:21:57.685Z,86
2019-01-15T02:22:59.733Z,87
2019-01-15T02:24:01.776Z,87
2019-01-15T02:25:03.812Z,88
2019-01-15T02:26:05.843Z,88
2019-01-15T02:27:07.885Z,88
2019-01-15T02:28:10.315Z,88
2019-01-15T02:29:12.345Z,89
2019-01-15T02:30:14.692Z,89
2019-01-15T02:31:17.143Z,90
2019-01-15T02:32:19.203Z,90
2019-01-15T02:33:21.236Z,89
2019-01-15T02:34:23.281Z,89
2019-01-15T02:35:25.721Z,89
2019-01-15T02:36:27.778Z,89
2019-01-15T02:37:30.187Z,89
2019-01-15T02:38:32.217Z,90
2019-01-15T02:39:34.268Z,89
2019-01-15T02:40:36.310Z,90
2019-01-15T02:41:38.350Z,90
2019-01-15T02:42:47.978Z,90
2019-01-15T02:43:50.313Z,90
2019-01-15T02:44:52.364Z,90
2019-01-15T02:45:54.389Z,90
2019-01-15T02:46:56.487Z,90
2019-01-15T02:47:58.814Z,91
2019-01-15T02:49:00.872Z,91
2019-01-15T02:50:02.929Z,91
2019-01-15T02:51:04.974Z,90
2019-01-15T02:52:07.002Z,90
2019-01-15T02:53:09.039Z,91
2019-01-15T02:54:11.080Z,91
2019-01-15T02:55:13.137Z,91
2019-01-15T02:56:15.182Z,91
2019-01-15T02:57:17.224Z,91
2019-01-15T02:58:19.241Z,90
2019-01-15T02:59:21.290Z,90
2019-01-15T03:00:23.348Z,90
2019-01-15T03:01:25.670Z,90
2019-01-15T03:02:27.704Z,91
2019-01-15T03:03:29.752Z,91
2019-01-15T03:04:31.804Z,90
2019-01-15T03:05:33.824Z,90
2019-01-15T03:06:35.858Z,90
2019-01-15T03:07:37.906Z,90
2019-01-15T03:08:40.351Z,90
2019-01-15T03:09:42.675Z,90
2019-01-15T03:10:44.730Z,91
2019-01-15T03:11:46.779Z,91
2019-01-15T03:12:57.630Z,91
2019-01-15T03:13:59.675Z,91
2019-01-15T03:15:01.719Z,90
2019-01-15T03:16:04.162Z,90
2019-01-15T03:17:06.580Z,90
2019-01-15T03:18:08.606Z,90
2019-01-15T03:19:10.639Z,90
2019-01-15T03:20:13.372Z,90
2019-01-15T03:21:15.705Z,90
2019-01-15T03:22:18.027Z,91
2019-01-15T03:23:20.054Z,91
2019-01-15T03:24:22.098Z,91
2019-01-15T03:25:24.561Z,90
2019-01-15T03:26:26.598Z,91
2019-01-15T03:27:28.964Z,91
2019-01-15T03:28:31.009Z,91
2019-01-15T03:29:33.060Z,91
2019-01-15T03:30:35.594Z,91
2019-01-15T03:31:38.050Z,91
2019-01-15T03:32:40.529Z,91
2019-01-15T03:33:43.151Z,91
2019-01-15T03:34:45.186Z,91
2019-01-15T03:35:47.503Z,92
2019-01-15T03:36:49.849Z,92
2019-01-15T03:37:52.210Z,92
2019-01-15T03:38:54.243Z,92
2019-01-15T03:39:56.279Z,93
2019-01-15T03:40:58.336Z,93
2019-01-15T03:42:00.948Z,93
2019-01-15T03:43:05.623Z,93
2019-01-15T03:44:07.681Z,93
2019-01-15T03:45:09.734Z,93
2019-01-15T03:46:12.055Z,93
2019-01-15T03:47:14.103Z,93
2019-01-15T03:48:16.176Z,94
2019-01-15T03:49:18.210Z,94
2019-01-15T03:50:20.649Z,93
2019-01-15T03:51:22.990Z,94
2019-01-15T03:52:25.424Z,94
2019-01-15T03:53:27.749Z,94
2019-01-15T03:54:30.471Z,94
2019-01-15T03:55:32.538Z,94
2019-01-15T03:56:34.601Z,94
2019-01-15T03:57:36.674Z,94
2019-01-15T03:58:38.696Z,94
2019-01-15T03:59:40.735Z,94
2019-01-15T04:00:42.781Z,94
2019-01-15T04:01:44.872Z,94
2019-01-15T04:02:47.470Z,94
2019-01-15T04:03:49.516Z,94
2019-01-15T04:04:51.626Z,94
2019-01-15T04:05:53.691Z,94
2019-01-15T04:06:55.731Z,94
2019-01-15T04:07:57.771Z,94
2019-01-15T04:09:00.090Z,94
2019-01-15T04:10:02.431Z,94
2019-01-15T04:11:04.505Z,93
2019-01-15T04:12:06.587Z,94
2019-01-15T04:13:12.417Z,93
2019-01-15T04:14:14.736Z,94
2019-01-15T04:15:17.178Z,94
2019-01-15T04:16:19.503Z,94
2019-01-15T04:17:21.558Z,94
2019-01-15T04:18:23.605Z,94
2019-01-15T04:19:26.018Z,94
2019-01-15T04:20:28.060Z,94
2019-01-15T04:21:30.094Z,95
2019-01-15T04:22:32.173Z,95
2019-01-15T04:23:34.503Z,95
2019-01-15T04:24:37.041Z,95
2019-01-15T04:25:39.484Z,95
2019-01-15T04:26:41.926Z,95
2019-01-15T04:27:44.283Z,95
2019-01-15T04:28:46.601Z,95
2019-01-15T04:29:48.655Z,95
2019-01-15T04:30:50.696Z,95
2019-01-15T04:31:53.108Z,96
2019-01-15T04:32:55.181Z,96
2019-01-15T04:33:57.618Z,96
2019-01-15T04:34:59.664Z,96
2019-01-15T04:36:01.830Z,96
2019-01-15T04:37:03.871Z,96
2019-01-15T04:38:06.175Z,96
2019-01-15T04:39:08.209Z,96
2019-01-15T04:40:10.526Z,96
2019-01-15T04:41:13.540Z,95
2019-01-15T04:42:15.602Z,96
2019-01-15T04:43:20.889Z,96
2019-01-15T04:44:22.955Z,95
2019-01-15T04:45:25.036Z,96
2019-01-15T04:46:27.094Z,96
2019-01-15T04:47:29.537Z,96
2019-01-15T04:48:31.629Z,96
2019-01-15T04:49:33.650Z,96
2019-01-15T04:50:35.692Z,95
2019-01-15T04:51:37.735Z,95
2019-01-15T04:52:39.787Z,95
2019-01-15T04:53:41.824Z,95
2019-01-15T04:54:43.897Z,95
2019-01-15T04:55:46.211Z,95
2019-01-15T04:56:48.245Z,95
2019-01-15T04:57:50.612Z,95
2019-01-15T04:58:52.676Z,95
2019-01-15T04:59:55.436Z,95
2019-01-15T05:00:57.777Z,95
2019-01-15T05:01:59.822Z,95
2019-01-15T05:03:02.178Z,94
2019-01-15T05:04:04.214Z,94
2019-01-15T05:05:06.809Z,94
2019-01-15T05:06:08.866Z,94
2019-01-15T05:07:10.906Z,94
2019-01-15T05:08:13.624Z,94
2019-01-15T05:09:15.667Z,94
2019-01-15T05:10:17.999Z,94
2019-01-15T05:11:20.050Z,94
2019-01-15T05:12:22.747Z,94
2019-01-15T05:13:28.445Z,94
2019-01-15T05:14:30.776Z,94
2019-01-15T05:15:33.126Z,94
2019-01-15T05:16:35.167Z,94
2019-01-15T05:17:37.240Z,94
2019-01-15T05:18:39.609Z,94
2019-01-15T05:19:41.678Z,94
2019-01-15T05:20:43.727Z,94
2019-01-15T05:21:45.764Z,94
2019-01-15T05:22:47.829Z,93
2019-01-15T05:23:50.322Z,94
2019-01-15T05:24:52.647Z,93
2019-01-15T05:25:55.649Z,93
2019-01-15T05:26:57.996Z,93
2019-01-15T05:28:00.318Z,93
2019-01-15T05:29:02.649Z,93
2019-01-15T05:30:04.698Z,93
2019-01-15T05:31:07.039Z,93
2019-01-15T05:32:09.083Z,93
2019-01-15T05:33:11.185Z,93
2019-01-15T05:34:13.543Z,93
2019-01-15T05:35:15.995Z,93
2019-01-15T05:36:18.091Z,93
2019-01-15T05:37:20.424Z,93
2019-01-15T05:38:22.765Z,93
2019-01-15T05:39:25.108Z,93
2019-01-15T05:40:27.170Z,93
2019-01-15T05:41:29.492Z,93
2019-01-15T05:42:31.550Z,93
2019-01-15T05:43:36.779Z,93
2019-01-15T05:44:39.088Z,93
2019-01-15T05:45:41.129Z,93
2019-01-15T05:46:43.577Z,93
2019-01-15T05:47:45.904Z,94
2019-01-15T05:48:48.222Z,94
2019-01-15T05:49:51.716Z,94
2019-01-15T05:50:54.068Z,94
2019-01-15T05:51:56.123Z,94
2019-01-15T05:52:58.214Z,94
2019-01-15T05:54:00.275Z,94
2019-01-15T05:55:02.727Z,94
2019-01-15T05:56:05.053Z,94
2019-01-15T05:57:07.392Z,94
2019-01-15T05:58:09.442Z,94
2019-01-15T05:59:11.772Z,95
2019-01-15T06:00:13.797Z,95
2019-01-15T06:01:15.844Z,96
2019-01-15T06:02:17.894Z,97
2019-01-15T06:03:19.929Z,98
2019-01-15T06:04:21.960Z,98
2019-01-15T06:05:24.011Z,99
2019-01-15T06:06:26.066Z,99
2019-01-15T06:07:34.572Z,99
2019-01-15T06:08:36.633Z,99
2019-01-15T06:09:39.336Z,99
2019-01-15T06:10:41.379Z,99
2019-01-15T06:11:43.413Z,99
2019-01-15T06:12:45.779Z,99
2019-01-15T06:13:47.832Z,99
2019-01-15T06:14:49.869Z,99
2019-01-15T06:15:51.908Z,100
2019-01-15T06:16:53.955Z,100
2019-01-15T06:17:55.994Z,100
2019-01-15T06:18:58.366Z,100
2019-01-15T06:20:00.610Z,100
2019-01-15T06:21:02.645Z,100
2019-01-15T06:22:05.047Z,100
2019-01-15T06:23:07.077Z,100
2019-01-15T06:24:09.107Z,100
2019-01-15T06:25:11.445Z,100
2019-01-15T06:26:13.511Z,100
2019-01-15T06:27:15.549Z,100
2019-01-15T06:28:17.596Z,100
2019-01-15T06:29:19.683Z,100
2019-01-15T06:30:22.391Z,100
2019-01-15T06:31:24.444Z,99
2019-01-15T06:32:26.503Z,99
2019-01-15T06:33:29.484Z,99
2019-01-15T06:34:31.820Z,99
2019-01-15T06:35:34.157Z,100
2019-01-15T06:36:36.599Z,100
2019-01-15T06:37:38.670Z,100
2019-01-15T06:38:40.729Z,99
2019-01-15T06:39:42.773Z,99
2019-01-15T06:40:44.816Z,99
2019-01-15T06:41:46.849Z,99
2019-01-15T06:42:48.894Z,99
2019-01-15T06:43:51.227Z,99
2019-01-15T06:44:53.261Z,99
2019-01-15T06:45:55.309Z,99
2019-01-15T06:46:57.342Z,99
2019-01-15T06:47:59.379Z,99
2019-01-15T06:49:01.429Z,99
2019-01-15T06:50:03.741Z,99
2019-01-15T06:51:05.779Z,99
2019-01-15T06:52:07.828Z,99
2019-01-15T06:53:10.170Z,99
2019-01-15T06:54:12.498Z,99
2019-01-15T06:55:16.120Z,99
2019-01-15T06:56:18.167Z,100
2019-01-15T06:57:20.210Z,99
2019-01-15T06:58:22.251Z,100
2019-01-15T06:59:24.290Z,100
2019-01-15T07:00:26.338Z,100
2019-01-15T07:01:28.377Z,100
2019-01-15T07:02:30.410Z,100
2019-01-15T07:03:32.443Z,100
2019-01-15T07:04:34.470Z,100
2019-01-15T07:05:36.799Z,100
2019-01-15T07:06:38.835Z,100
2019-01-15T07:07:40.891Z,100
2019-01-15T07:08:42.959Z,100
2019-01-15T07:09:45.020Z,100
2019-01-15T07:10:47.052Z,100
2019-01-15T07:11:49.096Z,100
2019-01-15T07:12:51.122Z,100
2019-01-15T07:13:57.956Z,100
2019-01-15T07:15:00.453Z,100
2019-01-15T07:16:02.559Z,100
2019-01-15T07:17:04.888Z,100
2019-01-15T07:18:07.300Z,100
2019-01-15T07:19:09.350Z,100
2019-01-15T07:20:11.387Z,100
2019-01-15T07:21:13.419Z,100
2019-01-15T07:22:15.446Z,100
2019-01-15T07:23:17.479Z,100
2019-01-15T07:24:19.517Z,100
2019-01-15T07:25:21.556Z,100
2019-01-15T07:26:23.599Z,100
2019-01-15T07:27:25.630Z,100
2019-01-15T07:28:27.680Z,100
2019-01-15T07:29:30.029Z,100
2019-01-15T07:30:32.530Z,100
2019-01-15T07:31:34.572Z,100
2019-01-15T07:32:36.618Z,100
2019-01-15T07:33:38.967Z,100
2019-01-15T07:34:41.005Z,100
2019-01-15T07:35:43.052Z,100
2019-01-15T07:36:45.098Z,100
2019-01-15T07:37:47.203Z,100
2019-01-15T07:38:49.231Z,100
2019-01-15T07:39:51.287Z,100
2019-01-15T07:40:53.340Z,100
2019-01-15T07:41:55.386Z,100
2019-01-15T07:42:57.437Z,100
2019-01-15T07:44:05.284Z,100
2019-01-15T07:45:07.602Z,100
2019-01-15T07:46:09.645Z,100
2019-01-15T07:47:11.684Z,100
2019-01-15T07:48:13.726Z,100
2019-01-15T07:49:15.774Z,100
2019-01-15T07:50:17.799Z,100
2019-01-15T07:51:19.835Z,100
2019-01-15T07:52:22.522Z,100
2019-01-15T07:53:24.848Z,100
2019-01-15T07:54:26.898Z,100
2019-01-15T07:55:28.942Z,100
2019-01-15T07:56:31.266Z,100
2019-01-15T07:57:59.055Z,100
2019-01-15T07:59:01.168Z,100
2019-01-15T08:00:03.290Z,100
2019-01-15T08:01:07.402Z,100
2019-01-15T08:02:09.705Z,100
2019-01-15T08:03:12.123Z,100
2019-01-15T08:04:14.272Z,100
2019-01-15T08:05:16.416Z,100
2019-01-15T08:06:18.531Z,100
2019-01-15T08:07:20.944Z,100
2019-01-15T08:08:23.128Z,100
2019-01-15T08:09:25.341Z,100
2019-01-15T08:10:27.497Z,100
2019-01-15T08:11:30.036Z,100
2019-01-15T08:12:32.178Z,100
2019-01-15T08:13:34.324Z,100
2019-01-15T08:14:36.453Z,100
2019-01-15T08:15:38.611Z,100
2019-01-15T08:16:40.733Z,100
2019-01-15T08:17:42.882Z,100
2019-01-15T08:18:45.039Z,100
2019-01-15T08:19:47.594Z,100
2019-01-15T08:20:49.732Z,100
2019-01-15T08:21:51.872Z,100
2019-01-15T08:22:54.008Z,100
2019-01-15T08:23:56.395Z,100
2019-01-15T08:24:58.921Z,100
2019-01-15T08:26:01.447Z,100
2019-01-15T08:27:03.590Z,100
2019-01-15T08:28:05.727Z,100
2019-01-15T08:29:07.875Z,100
2019-01-15T08:30:10.282Z,100
2019-01-15T08:31:13.091Z,100
2019-01-15T08:32:15.194Z,100
2019-01-15T08:33:17.338Z,100
2019-01-15T08:34:19.469Z,100
2019-01-15T08:35:21.620Z,100
2019-01-15T08:36:23.775Z,100
2019-01-15T08:37:25.899Z,100
2019-01-15T08:38:28.044Z,100
2019-01-15T08:39:30.459Z,100
2019-01-15T08:40:32.603Z,100
2019-01-15T08:41:35.130Z,100
2019-01-15T08:42:37.279Z,100
2019-01-15T08:43:39.427Z,100
2019-01-15T08:44:41.574Z,100
2019-01-15T08:45:43.713Z,100
2019-01-15T08:46:45.860Z,100
2019-01-15T08:47:50.403Z,100
2019-01-15T08:48:52.606Z,100
2019-01-15T08:49:55.297Z,100
2019-01-15T08:50:57.427Z,100
2019-01-15T08:51:59.551Z,100
2019-01-15T08:53:01.704Z,100
2019-01-15T08:54:03.834Z,100
2019-01-15T08:55:05.989Z,100
2019-01-15T08:56:08.528Z,100
2019-01-15T08:57:11.037Z,100
2019-01-15T08:58:13.543Z,100
2019-01-15T08:59:15.689Z,100
2019-01-15T09:00:18.147Z,100
2019-01-15T09:01:20.576Z,100
2019-01-15T09:02:22.685Z,100
2019-01-15T09:03:24.809Z,100
2019-01-15T09:04:27.266Z,100
2019-01-15T09:05:29.450Z,100
2019-01-15T09:06:31.982Z,100
2019-01-15T09:07:34.140Z,100
2019-01-15T09:08:36.557Z,100
2019-01-15T09:09:38.749Z,100
2019-01-15T09:10:40.972Z,100
2019-01-15T09:11:43.119Z,100
2019-01-15T09:12:45.241Z,100
2019-01-15T09:13:47.362Z,100
2019-01-15T09:14:49.476Z,100
2019-01-15T09:15:51.629Z,100
2019-01-15T09:16:53.933Z,100
2019-01-15T09:17:56.360Z,100
2019-01-15T09:18:58.574Z,100
2019-01-15T09:20:01.083Z,100
2019-01-15T09:21:03.503Z,100
2019-01-15T09:22:05.626Z,100
2019-01-15T09:23:08.132Z,100
2019-01-15T09:24:10.352Z,100
2019-01-15T09:25:12.487Z,100
2019-01-15T09:26:16.346Z,100
2019-01-15T09:27:18.918Z,100
2019-01-15T09:28:21.088Z,100
2019-01-15T09:29:23.514Z,100
2019-01-15T09:30:25.633Z,100
2019-01-15T09:31:27.845Z,100
2019-01-15T09:32:29.965Z,100
2019-01-15T09:33:32.108Z,100
2019-01-15T09:34:34.248Z,100
2019-01-15T09:35:36.375Z,100
2019-01-15T09:36:38.526Z,100
2019-01-15T09:37:40.689Z,100
2019-01-15T09:38:42.848Z,100
2019-01-15T09:39:44.985Z,100
2019-01-15T09:40:47.417Z,100
2019-01-15T09:41:49.556Z,100
2019-01-15T09:42:51.693Z,100
2019-01-15T09:43:53.826Z,100
2019-01-15T09:44:55.985Z,100
2019-01-15T09:45:58.152Z,100
2019-01-15T09:47:00.286Z,100
2019-01-15T09:48:02.727Z,100
2019-01-15T09:49:05.170Z,100
2019-01-15T09:50:07.311Z,100
2019-01-15T09:51:09.733Z,100
2019-01-15T09:52:21.367Z,100
2019-01-15T09:53:23.815Z,100
2019-01-15T09:54:25.950Z,100
2019-01-15T09:55:28.495Z,100
2019-01-15T09:56:30.631Z,100
2019-01-15T09:57:33.049Z,100
2019-01-15T09:58:35.245Z,100
2019-01-15T09:59:37.374Z,100
2019-01-15T10:00:39.506Z,100
2019-01-15T10:01:41.638Z,100
2019-01-15T10:02:43.757Z,100
2019-01-15T10:03:46.140Z,100
2019-01-15T10:04:48.184Z,100
2019-01-15T10:05:50.256Z,100
2019-01-15T10:06:52.322Z,100
2019-01-15T10:07:54.392Z,100
2019-01-15T10:08:56.449Z,100
2019-01-15T10:09:58.848Z,100
2019-01-15T10:11:00.929Z,100
2019-01-15T10:12:03.057Z,100
2019-01-15T10:13:05.182Z,100
2019-01-15T10:14:07.230Z,100
2019-01-15T10:15:09.290Z,100
2019-01-15T10:16:12.202Z,100
2019-01-15T10:17:14.554Z,100
2019-01-15T10:18:16.600Z,100
2019-01-15T10:19:18.670Z,100
2019-01-15T10:20:20.733Z,100
2019-01-15T10:21:23.173Z,100
2019-01-15T10:22:25.211Z,100
2019-01-15T10:23:27.272Z,100
2019-01-15T10:24:29.334Z,100
2019-01-15T10:25:31.392Z,100
2019-01-15T10:26:33.464Z,100
2019-01-15T10:27:35.566Z,100
2019-01-15T10:28:37.640Z,100
2019-01-15T10:29:39.677Z,100
2019-01-15T10:30:42.046Z,100
2019-01-15T10:31:44.385Z,100
2019-01-15T10:32:46.441Z,100
2019-01-15T10:33:48.497Z,100
2019-01-15T10:34:50.571Z,100
2019-01-15T10:35:52.654Z,100
2019-01-15T10:36:54.733Z,100
2019-01-15T10:37:56.777Z,100
2019-01-15T10:38:58.828Z,100
2019-01-15T10:40:00.934Z,100
2019-01-15T10:41:02.973Z,100
2019-01-15T10:42:05.048Z,100
2019-01-15T10:43:07.114Z,100
2019-01-15T10:44:09.168Z,100
2019-01-15T10:45:11.686Z,100
2019-01-15T10:46:13.725Z,100
2019-01-15T10:47:15.793Z,100
2019-01-15T10:48:17.866Z,100
2019-01-15T10:49:19.931Z,100
2019-01-15T10:50:22.000Z,100
2019-01-15T10:51:24.038Z,100
2019-01-15T10:52:27.726Z,100
2019-01-15T10:53:30.071Z,100
2019-01-15T10:54:32.135Z,100
2019-01-15T10:55:34.201Z,100
2019-01-15T10:56:36.246Z,100
2019-01-15T10:57:38.577Z,100
2019-01-15T10:58:40.646Z,100
2019-01-15T10:59:42.712Z,100
2019-01-15T11:00:44.777Z,100
2019-01-15T11:01:46.847Z,100
2019-01-15T11:02:48.892Z,100
2019-01-15T11:03:50.949Z,100
2019-01-15T11:04:53.019Z,100
2019-01-15T11:05:55.076Z,100
2019-01-15T11:06:57.544Z,100
2019-01-15T11:07:59.605Z,100
2019-01-15T11:09:01.672Z,100
2019-01-15T11:10:03.734Z,100
2019-01-15T11:11:05.859Z,100
2019-01-15T11:12:07.931Z,100
2019-01-15T11:13:10.016Z,100
2019-01-15T11:14:12.459Z,100
2019-01-15T11:15:14.519Z,100
2019-01-15T11:16:16.965Z,100
2019-01-15T11:17:19.001Z,100
2019-01-15T11:18:21.066Z,100
2019-01-15T11:19:23.125Z,100
2019-01-15T11:20:25.183Z,100
2019-01-15T11:21:27.285Z,100
2019-01-15T11:22:29.347Z,100
2019-01-15T11:23:31.393Z,100
2019-01-15T11:24:33.460Z,100
2019-01-15T11:25:35.515Z,100
2019-01-15T11:26:37.568Z,100
2019-01-15T11:27:39.612Z,100
2019-01-15T11:28:41.690Z,100
2019-01-15T11:29:43.743Z,100
2019-01-15T11:30:45.819Z,100
2019-01-15T11:31:47.854Z,100
2019-01-15T11:32:49.891Z,100
2019-01-15T11:33:52.223Z,100
2019-01-15T11:34:54.264Z,100
2019-01-15T11:35:56.615Z,100
2019-01-15T11:36:58.689Z,100
2019-01-15T11:38:01.144Z,100
2019-01-15T11:39:03.184Z,100
2019-01-15T11:40:05.228Z,100
2019-01-15T11:41:07.281Z,100
2019-01-15T11:42:09.338Z,100
2019-01-15T11:43:11.721Z,100
2019-01-15T11:44:13.791Z,100
2019-01-15T11:45:15.846Z,100
2019-01-15T11:46:17.902Z,100
2019-01-15T11:47:19.967Z,100
2019-01-15T11:48:22.023Z,100
2019-01-15T11:49:24.075Z,100
2019-01-15T11:50:26.209Z,100
2019-01-15T11:51:28.290Z,100
2019-01-15T11:52:30.357Z,100
2019-01-15T11:53:32.808Z,100
2019-01-15T11:54:34.870Z,100
2019-01-15T11:55:36.935Z,100
2019-01-15T11:56:39.041Z,100
2019-01-15T11:57:41.205Z,100
2019-01-15T11:58:43.351Z,100
2019-01-15T11:59:45.494Z,100
2019-01-15T12:00:47.637Z,100
2019-01-15T12:01:50.070Z,100
2019-01-15T12:02:52.199Z,100
2019-01-15T12:03:54.622Z,100
2019-01-15T12:04:56.769Z,100
2019-01-15T12:05:58.904Z,100
2019-01-15T12:07:01.032Z,100
2019-01-15T12:08:03.850Z,100
2019-01-15T12:09:06.047Z,100
2019-01-15T12:10:08.745Z,100
2019-01-15T12:11:10.900Z,100
2019-01-15T12:12:13.022Z,100
2019-01-15T12:13:15.466Z,100
2019-01-15T12:14:17.600Z,100
2019-01-15T12:15:19.733Z,100
2019-01-15T12:16:21.860Z,100
2019-01-15T12:17:24.276Z,100
2019-01-15T12:18:26.422Z,100
2019-01-15T12:19:28.551Z,100
2019-01-15T12:20:30.716Z,100
2019-01-15T12:21:32.832Z,100
2019-01-15T12:22:35.526Z,100
2019-01-15T12:23:37.664Z,100
2019-01-15T12:24:39.800Z,100
2019-01-15T12:25:42.223Z,100
2019-01-15T12:26:44.373Z,100
2019-01-15T12:27:46.520Z,100
2019-01-15T12:28:48.643Z,100
2019-01-15T12:29:50.764Z,100
2019-01-15T12:30:52.902Z,100
2019-01-15T12:31:55.044Z,100
2019-01-15T12:32:57.185Z,100
2019-01-15T12:33:59.610Z,100
2019-01-15T12:35:01.750Z,100
2019-01-15T12:36:04.270Z,100
2019-01-15T12:37:06.409Z,100
2019-01-15T12:38:08.555Z,100
2019-01-15T12:39:10.709Z,100
2019-01-15T12:40:12.856Z,100
2019-01-15T12:41:14.990Z,100
2019-01-15T12:42:17.108Z,100
2019-01-15T12:43:19.239Z,100
2019-01-15T12:44:21.665Z,100
2019-01-15T12:45:24.095Z,100
2019-01-15T12:46:26.238Z,100
2019-01-15T12:47:28.352Z,100
2019-01-15T12:48:30.781Z,100
2019-01-15T12:49:33.205Z,100
2019-01-15T12:50:35.336Z,100
2019-01-15T12:51:37.461Z,100
2019-01-15T12:52:39.585Z,100
2019-01-15T12:53:42.011Z,100
2019-01-15T12:54:44.146Z,100
2019-01-15T12:55:46.590Z,100
2019-01-15T12:56:48.744Z,100
2019-01-15T12:57:51.264Z,100
2019-01-15T12:58:53.405Z,100
2019-01-15T12:59:55.739Z,100
2019-01-15T13:00:57.858Z,100
2019-01-15T13:02:00.273Z,100
2019-01-15T13:03:02.419Z,100
2019-01-15T13:04:04.556Z,100
2019-01-15T13:05:07.001Z,100
2019-01-15T13:06:09.150Z,100
2019-01-15T13:07:11.686Z,100
2019-01-15T13:08:14.112Z,100
2019-01-15T13:09:16.257Z,100
2019-01-15T13:10:18.407Z,100
2019-01-15T13:11:20.537Z,100
2019-01-15T13:12:22.687Z,100
2019-01-15T13:13:24.813Z,100
2019-01-15T13:14:26.967Z,100
2019-01-15T13:15:35.901Z,100
2019-01-15T13:16:38.040Z,100
2019-01-15T13:17:40.174Z,100
2019-01-15T13:18:42.298Z,100
2019-01-15T13:19:44.471Z,100
2019-01-15T13:20:46.591Z,100
2019-01-15T13:21:48.730Z,100
2019-01-15T13:22:50.850Z,100
2019-01-15T13:23:53.294Z,100
2019-01-15T13:24:55.423Z,100
2019-01-15T13:25:57.553Z,100
2019-01-15T13:26:59.678Z,100
2019-01-15T13:28:01.807Z,100
2019-01-15T13:29:03.951Z,100
2019-01-15T13:30:06.364Z,100
2019-01-15T13:31:08.486Z,100
2019-01-15T13:32:10.619Z,100
2019-01-15T13:33:14.191Z,100
2019-01-15T13:34:16.624Z,100
2019-01-15T13:35:19.150Z,100
2019-01-15T13:36:21.291Z,100
2019-01-15T13:37:23.425Z,100
2019-01-15T13:38:25.560Z,100
2019-01-15T13:39:27.694Z,100
2019-01-15T13:40:29.831Z,100
2019-01-15T13:41:31.932Z,100
2019-01-15T13:42:34.063Z,100
2019-01-15T13:43:36.208Z,100
2019-01-15T13:44:38.350Z,100
2019-01-15T13:45:42.923Z,100
2019-01-15T13:46:45.048Z,100
2019-01-15T13:47:47.198Z,100
2019-01-15T13:48:49.346Z,100
2019-01-15T13:49:51.866Z,100
2019-01-15T13:50:54.006Z,100
2019-01-15T13:51:56.150Z,100
2019-01-15T13:52:58.268Z,100
2019-01-15T13:54:00.400Z,100
2019-01-15T13:55:02.559Z,100
2019-01-15T13:56:04.697Z,100
2019-01-15T13:57:06.835Z,100
2019-01-15T13:58:09.244Z,100
2019-01-15T13:59:11.380Z,100
2019-01-15T14:00:13.890Z,100
2019-01-15T14:01:16.010Z,100
2019-01-15T14:02:18.134Z,100
2019-01-15T14:03:20.250Z,100
2019-01-15T14:04:22.376Z,100
2019-01-15T14:05:24.513Z,100
2019-01-15T14:06:26.649Z,100
2019-01-15T14:07:28.786Z,100
2019-01-15T14:08:31.209Z,100
2019-01-15T14:09:33.337Z,100
2019-01-15T14:10:35.468Z,100
2019-01-15T14:11:37.611Z,100
2019-01-15T14:12:40.159Z,100
2019-01-15T14:13:42.303Z,100
2019-01-15T14:14:44.454Z,100
2019-01-15T14:15:50.014Z,100
2019-01-15T14:16:52.184Z,100
2019-01-15T14:17:54.325Z,100
2019-01-15T14:18:56.485Z,100
2019-01-15T14:19:58.675Z,100
2019-01-15T14:21:00.803Z,100
2019-01-15T14:22:02.965Z,100
2019-01-15T14:23:05.491Z,100
2019-01-15T14:24:07.619Z,100
2019-01-15T14:25:09.750Z,100
2019-01-15T14:26:11.869Z,100
2019-01-15T14:27:13.985Z,100
2019-01-15T14:28:16.146Z,100
2019-01-15T14:29:18.284Z,100
2019-01-15T14:30:20.426Z,100
2019-01-15T14:31:22.562Z,100
2019-01-15T14:32:24.715Z,100